Time;durP1;ratioP1;P1;durP2;ratioP2;P2;SDS_P1;SDS_P2;PMS_P1;PMS_P2;Temp;Humidity;BMP_temperature;BMP_pressure;BME280_temperature;BME280_humidity;BME280_pressure;Samples;Min_cycle;Max_cycle;Signal;HPM_P1;HPM_P2
2023/08/02 00:01:01;;;;;;;;;0.00;0.00;;;;;17.26;81.22;100010.69;5012871;28;9585;-67
2023/08/02 00:03:28;;;;;;;;;1.75;1.75;;;;;17.28;81.27;100009.34;4991006;28;8849;-67
2023/08/02 00:05:56;;;;;;;;;1.00;1.00;;;;;17.29;81.30;100010.16;5029165;28;8872;-67
2023/08/02 00:08:23;;;;;;;;;3.25;1.50;;;;;17.31;81.16;100013.44;5013659;28;8936;-67
2023/08/02 00:10:50;;;;;;;;;1.25;1.25;;;;;17.30;81.33;100020.78;5031699;28;8833;-67
2023/08/02 00:13:16;;;;;;;;;2.50;2.50;;;;;17.31;81.20;100016.16;5008736;28;8945;-67
2023/08/02 00:15:43;;;;;;;;;1.25;1.00;;;;;17.31;81.13;100018.88;4998041;28;8907;-67
2023/08/02 00:18:10;;;;;;;;;2.25;1.00;;;;;17.30;81.26;100004.47;5029772;28;8933;-67
2023/08/02 00:20:38;;;;;;;;;4.25;2.75;;;;;17.28;81.50;99995.72;5016556;28;9665;-67
2023/08/02 00:23:05;;;;;;;;;1.25;1.00;;;;;17.26;81.34;99988.94;5022503;28;10016;-67
2023/08/02 00:25:32;;;;;;;;;3.00;3.00;;;;;17.24;81.43;99991.88;5026428;28;8915;-67
2023/08/02 00:27:59;;;;;;;;;5.00;3.00;;;;;17.23;81.44;99992.16;5014197;28;9551;-67
2023/08/02 00:30:29;;;;;;;;;2.75;2.50;;;;;17.20;81.65;99979.88;5024506;28;8842;-67
2023/08/02 00:32:56;;;;;;;;;4.50;3.75;;;;;17.20;81.76;99979.88;5003867;28;8846;-67
2023/08/02 00:35:23;;;;;;;;;3.00;2.25;;;;;17.20;81.88;99981.78;5000196;28;8841;-67
2023/08/02 00:37:49;;;;;;;;;3.50;2.00;;;;;17.17;81.80;99987.75;5010207;28;8973;-67
2023/08/02 00:40:16;;;;;;;;;3.50;3.50;;;;;17.14;81.76;99982.84;5004677;28;9590;-67
2023/08/02 00:42:42;;;;;;;;;3.00;3.00;;;;;17.12;82.13;99993.97;5026633;28;8842;-67
2023/08/02 00:45:09;;;;;;;;;4.75;4.75;;;;;17.12;82.04;99988.53;5006108;28;8828;-67
2023/08/02 00:47:36;;;;;;;;;5.00;5.00;;;;;17.11;81.90;99994.22;5029741;28;8817;-67
2023/08/02 00:50:04;;;;;;;;;2.00;2.00;;;;;17.12;82.55;99985.81;5006545;28;8853;-67
2023/08/02 00:52:31;;;;;;;;;4.00;3.00;;;;;17.12;82.10;99985.81;5011235;28;8845;-67
2023/08/02 00:54:58;;;;;;;;;6.75;3.50;;;;;17.12;82.16;99985.81;5001222;28;8869;-67
2023/08/02 00:57:25;;;;;;;;;2.00;2.00;;;;;17.13;82.16;99984.72;5009641;28;8841;-67
2023/08/02 00:59:52;;;;;;;;;1.75;1.75;;;;;17.12;81.95;99984.97;5028440;28;8848;-67
2023/08/02 01:02:18;;;;;;;;;3.75;2.25;;;;;17.09;82.27;99978.16;5009773;28;8837;-67
2023/08/02 01:04:45;;;;;;;;;4.00;2.25;;;;;17.07;82.04;99964.00;5017479;28;9602;-68
2023/08/02 01:07:20;;;;;;;;;5.00;5.00;;;;;17.04;81.98;99959.06;5007671;28;8840;-67
2023/08/02 01:09:49;;;;;;;;;4.50;3.75;;;;;17.03;82.00;99960.16;5010876;28;8845;-67
2023/08/02 01:12:18;;;;;;;;;5.00;2.00;;;;;17.00;81.96;99957.97;5009544;28;8826;-68
2023/08/02 01:14:49;;;;;;;;;6.00;4.00;;;;;17.00;82.01;99955.25;5026162;28;8862;-67
2023/08/02 01:17:26;;;;;;;;;4.00;4.00;;;;;16.99;82.19;99959.84;4993242;28;8931;-67
2023/08/02 01:20:00;;;;;;;;;3.33;2.33;;;;;16.96;81.67;99962.28;4993545;28;8858;-68
2023/08/02 01:22:27;;;;;;;;;4.25;2.75;;;;;16.96;81.88;99962.28;5012474;28;8867;-67
2023/08/02 01:24:53;;;;;;;;;6.50;3.75;;;;;16.95;81.60;99945.13;5023956;28;8914;-67
2023/08/02 01:27:23;;;;;;;;;3.00;3.00;;;;;16.95;82.00;99933.44;4999553;28;8858;-67
2023/08/02 01:29:51;;;;;;;;;4.25;4.25;;;;;16.95;81.84;99930.72;5011845;28;8838;-67
2023/08/02 01:32:21;;;;;;;;;5.50;1.75;;;;;16.97;81.80;99934.00;5028540;28;8968;-68
2023/08/02 01:34:50;;;;;;;;;4.75;2.00;;;;;16.99;81.49;99924.50;5022555;28;8976;-67
2023/08/02 01:37:17;;;;;;;;;2.25;2.00;;;;;16.98;81.79;99912.00;5010682;28;8837;-67
2023/08/02 01:39:43;;;;;;;;;2.75;1.50;;;;;16.97;81.97;99909.53;5002648;28;8826;-68
2023/08/02 01:42:10;;;;;;;;;2.50;2.50;;;;;16.93;81.82;99906.50;5003500;28;8875;-68
2023/08/02 01:44:36;;;;;;;;;3.50;3.00;;;;;16.96;81.69;99903.28;5006379;28;8858;-67
2023/08/02 01:47:03;;;;;;;;;5.25;3.25;;;;;16.97;81.83;99896.75;4991669;28;8861;-67
2023/08/02 01:49:29;;;;;;;;;2.75;1.50;;;;;16.97;81.58;99904.91;5006044;28;8864;-67
2023/08/02 01:51:56;;;;;;;;;2.50;2.50;;;;;16.99;81.64;99899.22;5007830;28;8922;-67
2023/08/02 01:54:22;;;;;;;;;1.75;1.75;;;;;17.00;81.87;99890.00;5025429;28;8853;-67
2023/08/02 01:56:49;;;;;;;;;5.00;4.00;;;;;16.97;81.59;99882.34;5010477;28;8903;-67
2023/08/02 01:59:15;;;;;;;;;1.50;1.50;;;;;16.95;81.60;99887.25;5006892;28;8900;-67
2023/08/02 02:01:42;;;;;;;;;2.75;2.00;;;;;16.94;81.75;99877.44;5011158;28;9652;-67
2023/08/02 02:04:08;;;;;;;;;6.25;5.50;;;;;16.89;82.05;99869.22;5017368;28;8916;-67
2023/08/02 02:06:35;;;;;;;;;3.50;3.50;;;;;16.87;81.49;99857.81;5029234;28;8877;-67
2023/08/02 02:09:02;;;;;;;;;2.75;2.75;;;;;16.85;81.86;99866.22;5020644;28;8863;-67
2023/08/02 02:11:28;;;;;;;;;3.25;3.25;;;;;16.85;82.16;99862.66;5008398;28;8852;-67
2023/08/02 02:13:55;;;;;;;;;3.25;2.00;;;;;16.84;81.76;99861.84;5008181;28;8869;-68
2023/08/02 02:16:21;;;;;;;;;3.00;3.00;;;;;16.82;82.07;99861.31;5012495;28;8988;-67
2023/08/02 02:18:48;;;;;;;;;3.50;3.50;;;;;16.80;81.66;99847.97;5029347;28;8834;-67
2023/08/02 02:21:15;;;;;;;;;1.25;1.25;;;;;16.77;81.92;99840.34;4994147;28;8888;-70
2023/08/02 02:23:42;;;;;;;;;3.25;2.25;;;;;16.76;82.33;99832.44;5006565;28;8845;-67
2023/08/02 02:26:10;;;;;;;;;5.00;4.75;;;;;16.75;82.46;99825.38;5008153;28;9001;-67
2023/08/02 02:28:36;;;;;;;;;3.00;3.00;;;;;16.72;81.96;99813.09;5027844;28;8865;-68
2023/08/02 02:31:03;;;;;;;;;4.50;3.00;;;;;16.71;82.14;99829.66;5013457;28;8850;-68
2023/08/02 02:33:29;;;;;;;;;4.00;4.00;;;;;16.67;82.40;99829.34;5011204;28;8850;-68
2023/08/02 02:35:56;;;;;;;;;2.00;2.00;;;;;16.66;82.45;99822.28;5019812;28;8947;-67
2023/08/02 02:38:22;;;;;;;;;3.00;3.00;;;;;16.67;82.41;99818.47;5016164;28;8841;-67
2023/08/02 02:40:49;;;;;;;;;5.00;5.00;;;;;16.66;82.42;99810.59;5024419;28;8846;-67
2023/08/02 02:43:15;;;;;;;;;4.75;4.25;;;;;16.68;82.18;99811.97;5023069;28;8881;-68
2023/08/02 02:45:42;;;;;;;;;3.00;2.75;;;;;16.67;82.13;99804.91;5026858;28;8842;-68
2023/08/02 02:48:08;;;;;;;;;4.00;3.00;;;;;16.65;82.01;99798.91;5029712;28;8822;-67
2023/08/02 02:50:35;;;;;;;;;7.33;5.00;;;;;16.65;82.07;99788.03;5026913;28;8880;-67
2023/08/02 02:53:01;;;;;;;;;3.00;3.00;;;;;16.65;81.95;99787.19;4992663;28;8945;-66
2023/08/02 02:55:28;;;;;;;;;3.50;2.00;;;;;16.62;82.09;99783.13;5007438;28;8966;-67
2023/08/02 02:57:54;;;;;;;;;6.67;6.67;;;;;16.61;82.35;99778.78;5028710;28;8872;-66
2023/08/02 03:00:21;;;;;;;;;7.33;7.33;;;;;16.56;82.18;99773.28;5010831;28;9006;-67
2023/08/02 03:02:47;;;;;;;;;5.25;3.75;;;;;16.56;82.47;99773.28;5009880;28;9082;-67
2023/08/02 03:05:14;;;;;;;;;5.00;4.00;;;;;16.58;82.66;99771.13;5026457;28;8849;-68
2023/08/02 03:07:40;;;;;;;;;6.50;6.00;;;;;16.56;81.97;99751.53;5007206;28;8930;-67
2023/08/02 03:10:07;;;;;;;;;8.33;5.33;;;;;16.51;82.27;99748.81;5028519;28;8950;-67
2023/08/02 03:12:34;;;;;;;;;5.75;3.00;;;;;16.47;82.58;99753.13;5032784;28;8944;-67
2023/08/02 03:15:00;;;;;;;;;5.00;5.00;;;;;16.46;82.91;99756.91;5015541;28;8909;-67
2023/08/02 03:17:27;;;;;;;;;9.67;7.67;;;;;16.46;82.66;99751.47;5013751;28;8841;-67
2023/08/02 03:19:54;;;;;;;;;8.00;6.00;;;;;16.45;82.69;99736.28;5025364;28;8923;-67
2023/08/02 03:22:20;;;;;;;;;5.00;5.00;;;;;16.44;82.52;99729.19;5033176;28;8852;-67
2023/08/02 03:24:47;;;;;;;;;4.50;3.00;;;;;16.45;82.48;99719.97;5024297;28;8869;-69
2023/08/02 03:27:13;;;;;;;;;4.00;2.75;;;;;16.43;82.57;99722.94;5013952;28;8854;-68
2023/08/02 03:29:40;;;;;;;;;5.50;4.00;;;;;16.40;82.28;99711.75;5013247;28;8837;-67
2023/08/02 03:32:07;;;;;;;;;8.25;3.75;;;;;16.36;82.71;99711.47;5030987;28;9527;-67
2023/08/02 03:34:33;;;;;;;;;6.75;6.75;;;;;16.35;82.82;99709.03;5007559;28;8873;-68
2023/08/02 03:37:00;;;;;;;;;3.50;2.75;;;;;16.36;82.65;99707.94;5032780;28;8851;-68
2023/08/02 03:39:27;;;;;;;;;3.00;3.00;;;;;16.35;82.75;99698.16;5006565;28;8860;-68
2023/08/02 03:41:54;;;;;;;;;9.67;6.67;;;;;16.33;82.58;99693.00;5031774;28;8849;-68
2023/08/02 03:44:21;;;;;;;;;7.00;5.25;;;;;16.35;83.00;99707.13;5025342;28;8921;-69
2023/08/02 03:46:47;;;;;;;;;3.50;3.50;;;;;16.33;83.10;99687.56;5031873;28;8826;-68
2023/08/02 03:49:14;;;;;;;;;3.50;3.50;;;;;16.34;82.90;99691.91;5029243;28;8850;-68
2023/08/02 03:51:40;;;;;;;;;3.67;3.67;;;;;16.31;82.69;99682.38;5013447;28;9008;-68
2023/08/02 03:54:07;;;;;;;;;3.50;2.25;;;;;16.31;82.97;99668.78;5018839;28;8956;-68
2023/08/02 03:56:33;;;;;;;;;2.00;2.00;;;;;16.33;82.59;99676.69;5026603;28;8880;-68
2023/08/02 03:59:00;;;;;;;;;4.00;4.00;;;;;16.34;82.96;99663.94;5025622;28;8902;-68
2023/08/02 04:01:26;;;;;;;;;7.33;6.00;;;;;16.32;82.67;99659.56;5011219;28;9594;-68
2023/08/02 04:03:53;;;;;;;;;2.75;2.75;;;;;16.31;82.77;99646.25;5018910;28;9023;-68
2023/08/02 04:06:19;;;;;;;;;4.50;2.75;;;;;16.29;82.92;99641.09;5025356;28;8841;-70
2023/08/02 04:08:47;;;;;;;;;4.33;3.33;;;;;16.23;82.58;99635.88;5018173;28;8848;-68
2023/08/02 04:11:13;;;;;;;;;8.33;6.00;;;;;16.24;83.23;99635.59;5005664;28;8982;-69
2023/08/02 04:13:40;;;;;;;;;5.00;5.00;;;;;16.24;83.41;99640.22;5029404;28;9006;-68
2023/08/02 04:16:06;;;;;;;;;3.00;3.00;;;;;16.26;83.05;99629.94;5027630;28;8962;-68
2023/08/02 04:18:32;;;;;;;;;4.25;3.50;;;;;16.25;83.35;99626.41;5029015;28;8837;-68
2023/08/02 04:20:59;;;;;;;;;6.00;6.00;;;;;16.27;83.33;99620.69;5029491;28;8838;-68
2023/08/02 04:23:26;;;;;;;;;3.25;3.25;;;;;16.24;83.25;99613.88;5022385;28;8995;-68
2023/08/02 04:25:53;;;;;;;;;7.25;4.50;;;;;16.26;83.29;99603.59;5025841;28;9539;-68
2023/08/02 04:28:19;;;;;;;;;2.50;2.50;;;;;16.30;82.93;99590.31;5027474;28;8850;-67
2023/08/02 04:30:52;;;;;;;;;2.00;2.00;;;;;16.29;83.00;99589.50;5022331;28;8869;-68
2023/08/02 04:33:19;;;;;;;;;5.33;5.33;;;;;16.32;83.20;99599.00;5007329;28;9586;-68
2023/08/02 04:35:45;;;;;;;;;2.50;2.50;;;;;16.31;83.00;99590.03;5024673;28;8987;-68
2023/08/02 04:38:12;;;;;;;;;4.50;3.00;;;;;16.34;83.04;99590.63;5023411;28;8880;-68
2023/08/02 04:40:38;;;;;;;;;5.00;5.00;;;;;16.34;83.25;99588.72;5022602;28;8881;-68
2023/08/02 04:43:05;;;;;;;;;5.50;2.50;;;;;16.36;83.20;99585.72;5025714;28;8865;-68
2023/08/02 04:45:31;;;;;;;;;3.75;3.25;;;;;16.38;83.55;99572.72;5005327;28;8842;-69
2023/08/02 04:47:58;;;;;;;;;2.00;2.00;;;;;16.38;83.14;99559.13;5042384;28;8921;-68
2023/08/02 04:50:24;;;;;;;;;3.00;3.00;;;;;16.36;83.09;99551.22;5020614;28;8838;-68
2023/08/02 04:52:51;;;;;;;;;4.00;4.00;;;;;16.35;83.36;99546.88;5012976;28;8834;-68
2023/08/02 04:55:18;;;;;;;;;4.00;3.25;;;;;16.36;83.41;99540.38;5025552;28;8857;-68
2023/08/02 04:57:44;;;;;;;;;2.00;2.00;;;;;16.39;83.60;99518.13;5030419;28;8936;-68
2023/08/02 05:00:11;;;;;;;;;2.00;2.00;;;;;16.41;83.53;99509.72;5012952;28;8861;-67
2023/08/02 05:02:38;;;;;;;;;4.00;4.00;;;;;16.40;83.72;99499.91;5007945;28;8960;-68
2023/08/02 05:05:05;;;;;;;;;4.00;2.50;;;;;16.41;84.02;99499.69;5025920;28;8920;-68
2023/08/02 05:07:35;;;;;;;;;3.25;3.25;;;;;16.42;83.72;99497.78;5008594;28;8884;-68
2023/08/02 05:10:06;;;;;;;;;3.25;3.25;;;;;16.41;83.97;99510.53;5016614;28;8850;-68
2023/08/02 05:12:38;;;;;;;;;3.25;3.25;;;;;16.40;83.76;99506.16;5007414;28;8919;-68
2023/08/02 05:15:06;;;;;;;;;3.50;3.25;;;;;16.39;84.56;99495.56;5017537;28;8874;-68
2023/08/02 05:17:32;;;;;;;;;5.50;5.50;;;;;16.36;84.60;99488.75;5030888;28;8845;-68
2023/08/02 05:19:59;;;;;;;;;6.50;2.75;;;;;16.37;84.95;99490.41;5029936;28;8834;-68
2023/08/02 05:22:26;;;;;;;;;4.50;4.50;;;;;16.37;84.51;99478.75;5026673;28;8848;-68
2023/08/02 05:24:52;;;;;;;;;2.50;2.50;;;;;16.35;84.86;99473.56;5020954;28;8976;-68
2023/08/02 05:27:19;;;;;;;;;3.50;3.00;;;;;16.35;85.19;99462.69;5029994;28;8863;-68
2023/08/02 05:29:46;;;;;;;;;3.00;2.25;;;;;16.36;85.16;99460.78;5021282;28;8940;-67
2023/08/02 05:32:12;;;;;;;;;3.00;3.00;;;;;16.36;85.57;99450.75;5030070;28;9557;-68
2023/08/02 05:34:39;;;;;;;;;4.00;4.00;;;;;16.37;85.47;99448.88;5006731;28;8853;-69
2023/08/02 05:37:05;;;;;;;;;2.75;2.25;;;;;16.36;85.57;99437.16;5011635;28;8861;-69
2023/08/02 05:39:32;;;;;;;;;5.00;3.00;;;;;16.37;85.79;99425.25;5026389;28;8845;-68
2023/08/02 05:41:58;;;;;;;;;4.75;3.00;;;;;16.38;85.67;99407.03;5005614;28;8834;-68
2023/08/02 05:44:25;;;;;;;;;4.00;2.75;;;;;16.37;85.85;99410.84;5020537;28;10943;-68
2023/08/02 05:46:51;;;;;;;;;3.00;2.00;;;;;16.38;85.95;99407.03;5029032;28;8841;-68
2023/08/02 05:49:18;;;;;;;;;5.75;3.00;;;;;16.37;85.53;99394.56;5007162;28;8838;-68
2023/08/02 05:51:44;;;;;;;;;2.75;2.75;;;;;16.35;85.60;99385.84;5029908;28;8846;-68
2023/08/02 05:54:11;;;;;;;;;4.00;3.25;;;;;16.32;85.97;99388.00;5022530;28;9567;-68
2023/08/02 05:56:37;;;;;;;;;5.50;3.50;;;;;16.30;86.41;99387.47;5005328;28;9670;-68
2023/08/02 05:59:04;;;;;;;;;5.75;4.50;;;;;16.31;86.35;99386.38;5024817;28;8842;-69
2023/08/02 06:01:30;;;;;;;;;5.75;3.00;;;;;16.30;86.35;99376.59;5027655;28;8838;-68
2023/08/02 06:03:57;;;;;;;;;4.00;4.00;;;;;16.28;86.41;99375.22;5023560;28;8830;-68
2023/08/02 06:06:23;;;;;;;;;4.75;3.25;;;;;16.27;86.66;99373.59;5009576;28;8911;-69
2023/08/02 06:08:50;;;;;;;;;3.50;3.50;;;;;16.26;86.68;99364.66;5022261;28;8892;-69
2023/08/02 06:11:16;;;;;;;;;5.33;5.33;;;;;16.27;86.96;99365.47;5028026;28;8896;-68
2023/08/02 06:13:43;;;;;;;;;5.50;4.75;;;;;16.27;86.98;99377.13;5029133;28;8945;-69
2023/08/02 06:16:09;;;;;;;;;4.25;3.50;;;;;16.28;87.28;99354.31;5021664;28;8861;-68
2023/08/02 06:18:36;;;;;;;;;4.00;3.50;;;;;16.31;86.83;99359.22;5009798;28;8834;-69
2023/08/02 06:21:03;;;;;;;;;4.00;4.00;;;;;16.25;86.74;99346.72;5027243;28;8846;-67
2023/08/02 06:23:29;;;;;;;;;5.33;5.33;;;;;16.26;87.61;99352.97;5023418;28;8829;-68
2023/08/02 06:25:55;;;;;;;;;4.00;3.00;;;;;16.27;87.85;99344.53;5021486;28;8994;-69
2023/08/02 06:28:22;;;;;;;;;5.67;5.00;;;;;16.27;87.55;99344.53;4983676;28;8873;-68
2023/08/02 06:30:49;;;;;;;;;3.00;3.00;;;;;16.29;87.96;99334.25;5023412;28;8838;-69
2023/08/02 06:33:15;;;;;;;;;3.50;3.50;;;;;16.32;87.83;99316.59;5010070;28;8860;-68
2023/08/02 06:35:42;;;;;;;;;4.00;2.50;;;;;16.32;87.94;99311.16;5023716;28;8877;-68
2023/08/02 06:38:08;;;;;;;;;3.25;3.25;;;;;16.32;88.02;99308.44;5009239;28;8856;-68
2023/08/02 06:40:35;;;;;;;;;5.50;3.75;;;;;16.35;88.16;99296.22;5008289;28;8844;-69
2023/08/02 06:43:01;;;;;;;;;3.50;3.50;;;;;16.34;87.54;99291.91;5009688;28;8848;-69
2023/08/02 06:45:28;;;;;;;;;7.75;6.00;;;;;16.31;88.34;99291.34;5013961;28;8847;-69
2023/08/02 06:47:54;;;;;;;;;3.25;3.25;;;;;16.29;88.06;99276.41;5013821;28;8840;-68
2023/08/02 06:50:21;;;;;;;;;2.25;2.25;;;;;16.27;88.88;99276.66;4996073;28;8829;-69
2023/08/02 06:52:47;;;;;;;;;2.25;2.25;;;;;16.28;88.86;99261.19;5013647;28;8848;-68
2023/08/02 06:55:14;;;;;;;;;2.25;2.25;;;;;16.27;89.00;99263.09;5011679;28;8942;-68
2023/08/02 06:57:40;;;;;;;;;3.50;3.25;;;;;16.24;88.83;99255.47;4997913;28;8892;-69
2023/08/02 07:00:07;;;;;;;;;2.00;2.00;;;;;16.22;89.18;99240.56;5017983;28;9585;-69
2023/08/02 07:02:34;;;;;;;;;1.75;1.00;;;;;16.16;89.47;99220.72;5013399;28;8938;-69
2023/08/02 07:05:00;;;;;;;;;4.50;3.00;;;;;16.18;89.77;99224.00;4988482;28;8958;-69
2023/08/02 07:07:27;;;;;;;;;2.75;2.75;;;;;16.19;90.03;99222.91;5019707;28;8950;-68
2023/08/02 07:09:53;;;;;;;;;2.50;2.00;;;;;16.17;90.33;99211.50;5033039;28;8920;-69
2023/08/02 07:12:20;;;;;;;;;3.00;3.00;;;;;16.15;90.42;99202.00;5001731;28;8915;-69
2023/08/02 07:14:46;;;;;;;;;2.25;2.25;;;;;16.13;90.47;99185.19;4996359;28;8867;-68
2023/08/02 07:17:13;;;;;;;;;2.00;2.00;;;;;16.13;90.78;99172.41;5000970;28;8860;-68
2023/08/02 07:19:39;;;;;;;;;2.25;2.00;;;;;16.14;90.60;99181.38;5013913;28;8844;-68
2023/08/02 07:22:06;;;;;;;;;2.50;2.50;;;;;16.13;90.93;99167.00;5016979;28;8833;-68
2023/08/02 07:24:32;;;;;;;;;2.00;1.75;;;;;16.14;90.79;99160.47;5013934;28;9838;-68
2023/08/02 07:26:59;;;;;;;;;2.00;0.50;;;;;16.15;91.01;99148.53;5020196;28;9018;-68
2023/08/02 07:29:25;;;;;;;;;2.00;1.50;;;;;16.12;91.17;99149.06;4999476;28;8839;-68
2023/08/02 07:31:52;;;;;;;;;1.25;1.00;;;;;16.13;91.40;99147.19;5018216;28;8832;-69
2023/08/02 07:34:18;;;;;;;;;0.75;0.75;;;;;16.13;91.60;99137.13;5014137;28;8883;-68
2023/08/02 07:36:45;;;;;;;;;1.50;1.50;;;;;16.13;91.53;99136.31;4996372;28;8856;-68
2023/08/02 07:39:11;;;;;;;;;1.25;1.25;;;;;16.12;91.60;99127.34;5020658;28;8887;-69
2023/08/02 07:41:37;;;;;;;;;1.50;1.50;;;;;16.16;92.07;99120.28;4998752;28;9560;-70
2023/08/02 07:44:04;;;;;;;;;2.00;2.00;;;;;16.12;92.10;99111.06;5015507;28;8849;-68
2023/08/02 07:46:30;;;;;;;;;1.00;1.00;;;;;16.17;92.29;99104.84;5015236;28;8851;-68
2023/08/02 07:48:57;;;;;;;;;1.00;1.00;;;;;16.21;92.50;99111.34;5031076;28;8845;-68
2023/08/02 07:51:23;;;;;;;;;0.25;0.25;;;;;16.22;92.50;99099.38;5026877;28;9576;-68
2023/08/02 07:53:50;;;;;;;;;2.00;2.00;;;;;16.22;92.65;99092.06;5014843;28;8842;-69
2023/08/02 07:56:16;;;;;;;;;1.00;1.00;;;;;16.22;92.59;99089.34;5018384;28;9565;-68
2023/08/02 07:58:43;;;;;;;;;1.00;1.00;;;;;16.20;92.34;99086.06;5024459;28;8884;-69
2023/08/02 08:01:10;;;;;;;;;1.25;1.25;;;;;16.15;92.61;99083.38;5027362;28;8921;-69
2023/08/02 08:03:37;;;;;;;;;0.25;0.25;;;;;16.15;93.49;99085.28;5032319;28;8877;-69
2023/08/02 08:06:14;;;;;;;;;1.00;0.00;;;;;16.17;93.03;99077.69;5004635;28;8891;-69
2023/08/02 08:08:42;;;;;;;;;1.50;0.75;;;;;16.21;93.74;99073.34;5000305;28;8852;-69
2023/08/02 08:11:09;;;;;;;;;8.00;4.75;;;;;16.20;93.78;99069.78;5027052;28;8838;-68
2023/08/02 08:13:35;;;;;;;;;4.00;4.00;;;;;16.26;93.81;99062.44;5022525;28;8847;-69
2023/08/02 08:16:02;;;;;;;;;3.00;1.00;;;;;16.27;93.61;99064.06;5031973;28;8875;-69
2023/08/02 08:18:31;;;;;;;;;0.00;0.00;;;;;16.24;93.91;99060.00;5030628;28;8858;-69
2023/08/02 08:20:58;;;;;;;;;2.00;2.00;;;;;16.24;94.07;99057.28;5031696;28;8956;-69
2023/08/02 08:23:25;;;;;;;;;0.50;0.50;;;;;16.27;93.83;99042.34;5013393;28;8844;-68
2023/08/02 08:25:52;;;;;;;;;0.00;0.00;;;;;16.28;93.55;99039.34;5031763;28;8842;-69
2023/08/02 08:28:18;;;;;;;;;0.75;0.00;;;;;16.27;93.83;99036.91;4998647;28;8842;-68
2023/08/02 08:30:45;;;;;;;;;0.00;0.00;;;;;16.28;94.30;99031.22;5012357;28;8849;-69
2023/08/02 08:33:11;;;;;;;;;1.00;0.75;;;;;16.31;94.15;99027.94;4993981;28;8844;-68
2023/08/02 08:35:38;;;;;;;;;0.75;0.75;;;;;16.27;94.36;99023.34;4994382;28;9554;-69
2023/08/02 08:38:04;;;;;;;;;0.00;0.00;;;;;16.28;94.36;99014.91;5012004;28;8856;-69
2023/08/02 08:40:32;;;;;;;;;0.00;0.00;;;;;16.27;94.45;99001.63;5027668;28;8956;-68
2023/08/02 08:43:00;;;;;;;;;0.00;0.00;;;;;16.27;95.03;99010.59;5013778;28;8849;-70
2023/08/02 08:45:27;;;;;;;;;0.00;0.00;;;;;16.26;94.92;98994.56;5031234;28;9565;-70
2023/08/02 08:47:54;;;;;;;;;0.00;0.00;;;;;16.30;95.31;98991.03;5030644;28;8872;-69
2023/08/02 08:50:21;;;;;;;;;0.00;0.00;;;;;16.30;95.15;98982.06;5009401;28;8878;-69
2023/08/02 08:52:51;;;;;;;;;0.00;0.00;;;;;16.29;95.44;98978.56;5016380;28;8970;-69
2023/08/02 08:55:18;;;;;;;;;0.00;0.00;;;;;16.29;95.70;98985.88;5011222;28;9569;-69
2023/08/02 08:57:45;;;;;;;;;0.00;0.00;;;;;16.36;95.81;98993.72;5011915;28;8855;-69
2023/08/02 09:00:16;;;;;;;;;0.00;0.00;;;;;16.41;95.93;98983.66;5027106;28;8892;-70
2023/08/02 09:02:43;;;;;;;;;0.00;0.00;;;;;16.47;95.77;98976.31;5013266;28;8907;-70
2023/08/02 09:05:11;;;;;;;;;0.00;0.00;;;;;16.54;95.85;98971.38;5030526;28;9562;-69
2023/08/02 09:07:37;;;;;;;;;0.00;0.00;;;;;16.56;95.27;98963.75;5030753;28;8825;-70
2023/08/02 09:10:05;;;;;;;;;0.00;0.00;;;;;16.65;95.97;98969.41;5017417;28;8840;-70
2023/08/02 09:12:42;;;;;;;;;0.00;0.00;;;;;16.72;95.68;98968.00;5011218;28;8864;-70
2023/08/02 09:15:09;;;;;;;;;0.00;0.00;;;;;16.78;95.47;98955.25;5011399;28;8978;-70
2023/08/02 09:17:46;;;;;;;;;1.00;1.00;;;;;16.81;95.34;98951.97;5010934;28;8859;-71
2023/08/02 09:20:13;;;;;;;;;0.00;0.00;;;;;16.83;95.60;98946.25;5021966;28;8864;-70
2023/08/02 09:22:40;;;;;;;;;0.00;0.00;;;;;16.84;95.81;98953.31;5030662;28;8919;-70
2023/08/02 09:25:08;;;;;;;;;2.00;0.25;;;;;16.86;95.77;98945.69;5030850;28;8850;-70
2023/08/02 09:27:34;;;;;;;;;0.75;0.75;;;;;16.87;95.92;98953.56;4996705;28;9713;-70
2023/08/02 09:30:01;;;;;;;;;0.00;0.00;;;;;16.88;95.99;98948.94;5022090;28;8897;-69
2023/08/02 09:32:27;;;;;;;;;0.00;0.00;;;;;16.88;95.94;98933.44;5030705;28;8836;-70
2023/08/02 09:34:57;;;;;;;;;0.00;0.00;;;;;16.94;96.56;98939.66;5012643;28;8853;-69
2023/08/02 09:37:35;;;;;;;;;1.00;0.00;;;;;16.99;95.85;98942.34;5012598;28;10152;-70
2023/08/02 09:40:04;;;;;;;;;0.50;0.50;;;;;17.06;96.17;98940.13;5011917;28;8857;-70
2023/08/02 09:42:31;;;;;;;;;1.00;1.00;;;;;17.12;96.41;98944.41;5030311;28;9011;-70
2023/08/02 09:45:04;;;;;;;;;1.25;1.25;;;;;17.16;95.77;98950.91;5030388;28;8833;-71
2023/08/02 09:47:31;;;;;;;;;1.75;0.00;;;;;17.22;96.09;98946.25;5028538;28;8864;-70
2023/08/02 09:50:07;;;;;;;;;1.75;0.50;;;;;17.29;95.73;98936.66;5008055;28;8915;-70
2023/08/02 09:52:36;;;;;;;;;1.00;1.00;;;;;17.39;96.00;98937.69;5029350;28;8934;-70
2023/08/02 09:55:03;;;;;;;;;0.25;0.25;;;;;17.46;96.02;98930.81;5030098;28;8873;-70
2023/08/02 09:57:31;;;;;;;;;0.00;0.00;;;;;17.53;95.66;98925.81;5012501;28;8825;-70
2023/08/02 10:00:04;;;;;;;;;1.00;1.00;;;;;17.61;95.32;98908.06;5018971;28;8856;-69
2023/08/02 10:02:40;;;;;;;;;1.00;1.00;;;;;17.69;95.35;98910.16;5004419;28;9575;-70
2023/08/02 10:05:12;;;;;;;;;0.50;0.50;;;;;17.79;95.34;98901.13;5031874;28;8850;-70
2023/08/02 10:07:41;;;;;;;;;1.50;1.50;;;;;17.82;95.06;98905.16;5016526;28;8988;-70
2023/08/02 10:10:21;;;;;;;;;1.00;1.00;;;;;17.84;94.39;98909.22;5019345;28;8930;-70
2023/08/02 10:12:53;;;;;;;;;1.00;1.00;;;;;17.81;94.89;98907.06;5016360;28;8856;-69
2023/08/02 10:15:19;;;;;;;;;0.25;0.25;;;;;17.83;95.09;98913.06;5011772;28;8849;-69
2023/08/02 10:17:47;;;;;;;;;1.50;1.25;;;;;17.85;94.91;98897.22;5030928;28;8829;-69
2023/08/02 10:20:14;;;;;;;;;0.00;0.00;;;;;17.86;95.31;98898.84;5011359;28;8882;-70
2023/08/02 10:22:41;;;;;;;;;2.25;2.00;;;;;17.88;95.16;98895.84;5027980;28;8857;-70
2023/08/02 10:25:08;;;;;;;;;2.00;1.00;;;;;17.96;95.36;98900.66;5034865;28;8826;-70
2023/08/02 10:27:36;;;;;;;;;2.00;2.00;;;;;17.95;95.36;98905.31;5011188;28;8874;-70
2023/08/02 10:30:04;;;;;;;;;3.50;3.25;;;;;17.83;95.25;98898.66;4997222;28;8880;-69
2023/08/02 10:32:30;;;;;;;;;3.00;3.00;;;;;17.78;95.77;98894.88;5014069;28;8860;-69
2023/08/02 10:34:59;;;;;;;;;3.00;3.00;;;;;17.83;95.93;98896.72;5014434;28;8986;-70
2023/08/02 10:37:51;;;;;;;;;3.00;2.00;;;;;17.96;96.06;98889.78;5014672;28;8860;-70
2023/08/02 10:40:21;;;;;;;;;2.00;2.00;;;;;18.02;96.22;98885.88;5004785;28;8976;-70
2023/08/02 10:43:07;;;;;;;;;2.50;2.50;;;;;18.16;95.70;98875.91;5033839;28;8870;-70
2023/08/02 10:45:34;;;;;;;;;3.00;3.00;;;;;18.22;95.06;98877.44;5031731;28;8892;-70
2023/08/02 10:48:26;;;;;;;;;1.00;1.00;;;;;18.17;94.10;98863.91;5034261;28;8833;-72
2023/08/02 10:50:52;;;;;;;;;3.00;2.75;;;;;18.26;93.96;98859.41;5015148;28;8972;-69
2023/08/02 10:53:19;;;;;;;;;1.25;0.75;;;;;18.38;93.32;98855.44;5034372;28;8821;-69
2023/08/02 10:56:10;;;;;;;;;0.75;0.75;;;;;18.46;92.16;98846.63;5016151;28;8903;-70
2023/08/02 10:58:51;;;;;;;;;0.00;0.00;;;;;18.42;91.15;98842.84;5015847;28;8877;-70
2023/08/02 11:01:18;;;;;;;;;1.00;1.00;;;;;18.28;90.78;98854.50;5032176;28;8838;-70
2023/08/02 11:03:46;;;;;;;;;3.25;1.00;;;;;18.32;90.04;98845.75;5033441;28;8830;-69
2023/08/02 11:06:27;;;;;;;;;2.75;2.75;;;;;18.42;89.41;98851.03;5033840;28;8862;-69
2023/08/02 11:08:54;;;;;;;;;0.00;0.00;;;;;18.51;89.33;98841.09;5034259;28;8976;-69
2023/08/02 11:11:29;;;;;;;;;2.00;2.00;;;;;18.54;88.90;98838.59;5008104;28;8864;-69
2023/08/02 11:13:56;;;;;;;;;1.75;1.75;;;;;18.57;88.72;98831.75;5014396;28;8886;-69
2023/08/02 11:16:23;;;;;;;;;3.50;3.00;;;;;18.60;88.52;98838.53;4996475;28;8872;-70
2023/08/02 11:18:50;;;;;;;;;2.00;2.00;;;;;18.73;88.81;98826.91;5014484;28;8846;-70
2023/08/02 11:21:17;;;;;;;;;1.75;1.00;;;;;18.84;88.60;98822.06;5016639;28;8926;-69
2023/08/02 11:23:45;;;;;;;;;4.25;4.25;;;;;18.87;87.91;98816.03;5012126;28;8926;-69
2023/08/02 11:26:18;;;;;;;;;5.25;3.00;;;;;18.87;86.63;98816.03;5009085;28;8856;-70
2023/08/02 11:28:47;;;;;;;;;2.75;2.75;;;;;18.82;85.95;98814.19;5033185;28;8841;-70
2023/08/02 11:31:15;;;;;;;;;1.50;1.00;;;;;18.82;84.45;98830.56;5031427;28;8833;-69
2023/08/02 11:33:42;;;;;;;;;2.00;1.75;;;;;18.95;83.00;98826.25;5015689;28;8853;-69
2023/08/02 11:36:09;;;;;;;;;1.75;1.75;;;;;19.11;82.53;98807.72;5033395;28;8883;-69
2023/08/02 11:38:37;;;;;;;;;0.75;0.75;;;;;19.12;79.86;98826.50;5033300;28;8838;-69
2023/08/02 11:41:17;;;;;;;;;0.00;0.00;;;;;19.10;77.97;98814.28;5019961;28;8903;-69
2023/08/02 11:43:45;;;;;;;;;0.25;0.25;;;;;19.16;76.26;98822.06;5013096;28;8852;-69